createdAt,value
2018-11-07T00:00:25.543Z,997.53
2018-11-07T00:01:35.370Z,997.55
2018-11-07T00:02:45.520Z,997.52
2018-11-07T00:03:55.819Z,997.52
2018-11-07T00:05:05.706Z,997.48
2018-11-07T00:06:15.795Z,997.54
2018-11-07T00:07:25.346Z,997.53
2018-11-07T00:08:35.348Z,997.55
2018-11-07T00:09:45.529Z,997.53
2018-11-07T00:10:55.409Z,997.6
2018-11-07T00:12:05.577Z,997.6
2018-11-07T00:13:15.393Z,997.56
2018-11-07T00:14:25.548Z,997.57
2018-11-07T00:15:35.393Z,997.51
2018-11-07T00:16:45.729Z,997.49
2018-11-07T00:17:55.341Z,997.52
2018-11-07T00:19:05.422Z,997.5
2018-11-07T00:20:16.490Z,997.55
2018-11-07T00:21:26.339Z,997.58
2018-11-07T00:22:36.180Z,997.53
2018-11-07T00:23:46.287Z,997.54
2018-11-07T00:24:56.418Z,997.52
2018-11-07T00:26:06.470Z,997.5
2018-11-07T00:27:16.810Z,997.47
2018-11-07T00:28:26.622Z,997.5
2018-11-07T00:29:36.440Z,997.5
2018-11-07T00:30:46.575Z,997.47
2018-11-07T00:31:56.676Z,997.48
2018-11-07T00:33:06.758Z,997.52
2018-11-07T00:34:16.365Z,997.51
2018-11-07T00:35:26.488Z,997.52
2018-11-07T00:36:36.056Z,997.52
2018-11-07T00:37:45.864Z,997.55
2018-11-07T00:38:55.705Z,997.58
2018-11-07T00:40:05.618Z,997.55
2018-11-07T00:41:15.430Z,997.53
2018-11-07T00:42:25.019Z,997.56
2018-11-07T00:43:35.089Z,997.57
2018-11-07T00:44:44.972Z,997.57
2018-11-07T00:45:54.872Z,997.6
2018-11-07T00:47:04.948Z,997.62
2018-11-07T00:48:15.034Z,997.6
2018-11-07T00:49:24.058Z,997.59
2018-11-07T00:50:34.154Z,997.57
2018-11-07T00:51:44.000Z,997.59
2018-11-07T00:52:54.276Z,997.64
2018-11-07T00:54:03.827Z,997.63
2018-11-07T00:55:13.398Z,997.62
2018-11-07T00:56:23.710Z,997.58
2018-11-07T00:57:33.793Z,997.59
2018-11-07T00:58:43.875Z,997.56
2018-11-07T00:59:53.698Z,997.51
2018-11-07T01:01:04.182Z,997.5
2018-11-07T01:02:14.261Z,997.46
2018-11-07T01:03:24.398Z,997.51
2018-11-07T01:04:34.495Z,997.48
2018-11-07T01:05:44.652Z,997.45
2018-11-07T01:06:54.468Z,997.42
2018-11-07T01:08:04.538Z,997.4
2018-11-07T01:09:14.493Z,997.43
2018-11-07T01:10:25.014Z,997.43
2018-11-07T01:11:35.759Z,997.41
2018-11-07T01:12:45.593Z,997.4
2018-11-07T01:13:55.668Z,997.42
2018-11-07T01:15:06.265Z,997.43
2018-11-07T01:16:16.396Z,997.44
2018-11-07T01:17:25.957Z,997.39
2018-11-07T01:18:36.271Z,997.39
2018-11-07T01:19:46.557Z,997.41
2018-11-07T01:20:56.435Z,997.37
2018-11-07T01:22:06.433Z,997.35
2018-11-07T01:23:16.717Z,997.31
2018-11-07T01:24:26.534Z,997.34
2018-11-07T01:25:36.090Z,997.42
2018-11-07T01:26:45.630Z,997.42
2018-11-07T01:27:55.447Z,997.41
2018-11-07T01:29:07.827Z,997.41
2018-11-07T01:30:17.919Z,997.37
2018-11-07T01:31:27.482Z,997.43
2018-11-07T01:32:37.354Z,997.37
2018-11-07T01:33:47.458Z,997.44
2018-11-07T01:34:57.279Z,997.44
2018-11-07T01:36:07.107Z,997.46
2018-11-07T01:37:17.193Z,997.51
2018-11-07T01:38:27.076Z,997.5
2018-11-07T01:39:37.145Z,997.48
2018-11-07T01:40:47.215Z,997.49
2018-11-07T01:41:57.066Z,997.46
2018-11-07T01:43:06.972Z,997.43
2018-11-07T01:44:16.780Z,997.45
2018-11-07T01:45:26.583Z,997.45
2018-11-07T01:46:36.700Z,997.45
2018-11-07T01:47:46.977Z,997.46
2018-11-07T01:48:57.049Z,997.45
2018-11-07T01:50:07.161Z,997.45
2018-11-07T01:51:16.992Z,997.48
2018-11-07T01:52:26.810Z,997.43
2018-11-07T01:53:36.618Z,997.42
2018-11-07T01:54:46.416Z,997.4
2018-11-07T01:55:56.559Z,997.4
2018-11-07T01:57:06.385Z,997.4
2018-11-07T01:58:15.974Z,997.44
2018-11-07T01:59:25.690Z,997.44
2018-11-07T02:00:35.777Z,997.43
2018-11-07T02:01:45.394Z,997.42
2018-11-07T02:02:55.824Z,997.32
2018-11-07T02:04:06.511Z,997.31
2018-11-07T02:05:16.105Z,997.34
2018-11-07T02:06:26.180Z,997.28
2018-11-07T02:07:36.258Z,997.32
2018-11-07T02:08:46.341Z,997.25
2018-11-07T02:09:56.149Z,997.22
2018-11-07T02:11:07.627Z,997.22
2018-11-07T02:12:17.184Z,997.26
2018-11-07T02:13:27.253Z,997.29
2018-11-07T02:14:37.340Z,997.32
2018-11-07T02:15:47.419Z,997.33
2018-11-07T02:16:57.351Z,997.35
2018-11-07T02:18:07.159Z,997.37
2018-11-07T02:19:17.296Z,997.37
2018-11-07T02:20:27.088Z,997.39
2018-11-07T02:21:37.198Z,997.4
2018-11-07T02:22:47.007Z,997.39
2018-11-07T02:23:56.854Z,997.42
2018-11-07T02:26:31.500Z,997.35
2018-11-07T02:27:41.729Z,997.35
2018-11-07T02:28:51.252Z,997.34
2018-11-07T02:30:02.970Z,997.34
2018-11-07T02:31:13.117Z,997.34
2018-11-07T02:32:22.903Z,997.38
2018-11-07T02:33:33.027Z,997.37
2018-11-07T02:34:43.113Z,997.43
2018-11-07T02:35:53.218Z,997.35
2018-11-07T02:37:03.847Z,997.36
2018-11-07T02:38:14.593Z,997.37
2018-11-07T02:39:24.685Z,997.3
2018-11-07T02:40:34.718Z,997.33
2018-11-07T02:41:44.366Z,997.37
2018-11-07T02:42:54.579Z,997.36
2018-11-07T02:44:04.644Z,997.4
2018-11-07T02:45:14.729Z,997.42
2018-11-07T02:46:24.295Z,997.4
2018-11-07T02:47:34.549Z,997.46
2018-11-07T02:50:11.341Z,997.48
2018-11-07T02:51:21.457Z,997.47
2018-11-07T02:52:31.277Z,997.44
2018-11-07T02:53:41.471Z,997.44
2018-11-07T02:54:50.706Z,997.41
2018-11-07T02:56:02.386Z,997.43
2018-11-07T02:57:11.922Z,997.43
2018-11-07T02:58:21.732Z,997.38
2018-11-07T02:59:31.557Z,997.42
2018-11-07T03:00:41.686Z,997.38
2018-11-07T03:01:51.281Z,997.33
2018-11-07T03:03:01.509Z,997.42
2018-11-07T03:34:39.996Z,997.59
2018-11-07T03:35:50.083Z,997.58
2018-11-07T03:36:59.709Z,997.53
2018-11-07T03:38:09.551Z,997.59
2018-11-07T03:39:19.723Z,997.6
2018-11-07T03:40:29.362Z,997.6
2018-11-07T03:41:39.183Z,997.56
2018-11-07T03:42:48.996Z,997.56
2018-11-07T03:43:58.567Z,997.58
2018-11-07T03:45:08.559Z,997.67
2018-11-07T03:46:18.410Z,997.71
2018-11-07T03:47:28.254Z,997.73
2018-11-07T03:48:38.397Z,997.77
2018-11-07T03:49:48.530Z,997.76
2018-11-07T03:50:58.367Z,997.74
2018-11-07T03:52:09.293Z,997.76
2018-11-07T03:53:19.441Z,997.73
2018-11-07T03:54:30.014Z,997.72
2018-11-07T03:55:39.875Z,997.75
2018-11-07T03:56:49.442Z,997.76
2018-11-07T03:57:59.771Z,997.75
2018-11-07T03:59:10.958Z,997.71
2018-11-07T04:00:20.871Z,997.72
2018-11-07T04:01:30.676Z,997.69
2018-11-07T04:02:40.505Z,997.65
2018-11-07T04:03:50.738Z,997.61
2018-11-07T04:05:00.823Z,997.64
2018-11-07T04:06:10.680Z,997.63
2018-11-07T04:07:20.775Z,997.63
2018-11-07T04:08:30.385Z,997.61
2018-11-07T04:09:40.207Z,997.6
2018-11-07T04:10:50.039Z,997.54
2018-11-07T04:12:00.145Z,997.57
2018-11-07T04:13:10.721Z,997.53
2018-11-07T04:14:20.544Z,997.47
2018-11-07T04:15:30.101Z,997.5
2018-11-07T04:16:39.901Z,997.48
2018-11-07T04:17:49.720Z,997.54
2018-11-07T04:18:59.255Z,997.53
2018-11-07T04:20:09.069Z,997.55
2018-11-07T04:21:18.886Z,997.55
2018-11-07T04:22:28.980Z,997.56
2018-11-07T04:23:38.560Z,997.55
2018-11-07T04:24:48.722Z,997.6
2018-11-07T04:25:58.258Z,997.58
2018-11-07T04:27:08.448Z,997.62
2018-11-07T04:28:17.212Z,997.68
2018-11-07T04:29:26.772Z,997.68
2018-11-07T04:30:36.600Z,997.68
2018-11-07T04:31:46.424Z,997.66
2018-11-07T04:32:56.544Z,997.7
2018-11-07T04:34:07.413Z,997.7
2018-11-07T04:35:17.478Z,997.68
2018-11-07T04:36:27.031Z,997.72
2018-11-07T04:37:37.122Z,997.68
2018-11-07T04:38:47.039Z,997.68
2018-11-07T04:39:56.794Z,997.68
2018-11-07T04:41:06.631Z,997.72
2018-11-07T04:42:16.691Z,997.73
2018-11-07T04:43:26.513Z,997.75
2018-11-07T04:44:36.734Z,997.76
2018-11-07T04:45:46.843Z,997.79
2018-11-07T04:46:56.892Z,997.8
2018-11-07T04:48:06.189Z,997.85
2018-11-07T04:49:15.995Z,997.81
2018-11-07T04:50:25.887Z,997.77
2018-11-07T04:51:35.698Z,997.75
2018-11-07T04:52:46.085Z,997.76
2018-11-07T04:53:56.175Z,997.79
2018-11-07T04:55:05.752Z,997.73
2018-11-07T04:56:15.661Z,997.76
2018-11-07T04:57:25.524Z,997.72
2018-11-07T04:58:34.817Z,997.74
2018-11-07T04:59:44.890Z,997.7
2018-11-07T05:00:54.960Z,997.69
2018-11-07T05:02:04.854Z,997.7
2018-11-07T05:03:14.930Z,997.64
2018-11-07T05:04:25.011Z,997.66
2018-11-07T05:05:35.097Z,997.72
2018-11-07T05:06:45.121Z,997.71
2018-11-07T05:07:55.243Z,997.71
2018-11-07T05:09:05.116Z,997.72
2018-11-07T05:10:14.974Z,997.79
2018-11-07T05:11:24.520Z,997.81
2018-11-07T05:12:34.879Z,997.84
2018-11-07T05:13:44.422Z,997.81
2018-11-07T05:14:53.782Z,997.83
2018-11-07T05:16:04.246Z,997.86
2018-11-07T05:17:14.345Z,997.87
2018-11-07T05:18:24.671Z,997.9
2018-11-07T05:19:34.531Z,997.93
2018-11-07T05:20:44.644Z,997.93
2018-11-07T05:21:54.473Z,997.93
2018-11-07T05:23:04.559Z,997.91
2018-11-07T05:24:14.638Z,997.95
2018-11-07T05:25:24.480Z,997.94
2018-11-07T05:26:34.558Z,997.94
2018-11-07T05:27:44.636Z,997.95
2018-11-07T05:28:54.464Z,997.95
2018-11-07T05:30:04.539Z,998.01
2018-11-07T05:31:14.328Z,998.02
2018-11-07T05:32:24.397Z,998.06
2018-11-07T05:33:33.985Z,998.09
2018-11-07T05:34:44.181Z,998.09
2018-11-07T05:35:54.009Z,998.09
2018-11-07T05:37:03.562Z,998.08
2018-11-07T05:38:13.619Z,998.13
2018-11-07T05:39:23.432Z,998.12
2018-11-07T05:40:33.011Z,998.16
2018-11-07T05:41:43.090Z,998.12
2018-11-07T05:42:53.501Z,998.14
2018-11-07T05:44:03.818Z,998.18
2018-11-07T05:45:14.079Z,998.16
2018-11-07T05:46:24.158Z,998.17
2018-11-07T05:47:33.988Z,998.17
2018-11-07T05:48:43.620Z,998.18
2018-11-07T05:49:53.857Z,998.18
2018-11-07T05:51:04.953Z,998.17
2018-11-07T05:52:14.762Z,998.15
2018-11-07T05:53:24.633Z,998.22
2018-11-07T05:54:34.327Z,998.19
2018-11-07T05:55:44.411Z,998.2
2018-11-07T05:56:54.777Z,998.2
2018-11-07T05:58:04.840Z,998.26
2018-11-07T05:59:14.651Z,998.21
2018-11-07T06:00:24.509Z,998.23
2018-11-07T06:01:34.582Z,998.24
2018-11-07T06:02:44.642Z,998.26
2018-11-07T06:03:54.726Z,998.22
2018-11-07T06:05:04.550Z,998.23
2018-11-07T06:06:14.103Z,998.21
2018-11-07T06:07:23.931Z,998.22
2018-11-07T06:08:34.043Z,998.25
2018-11-07T06:09:44.108Z,998.25
2018-11-07T06:10:53.655Z,998.26
2018-11-07T06:12:03.541Z,998.33
2018-11-07T06:13:13.115Z,998.31
2018-11-07T06:14:22.971Z,998.39
2018-11-07T06:15:33.044Z,998.35
2018-11-07T06:16:42.325Z,998.42
2018-11-07T06:17:52.524Z,998.39
2018-11-07T06:19:02.437Z,998.39
2018-11-07T06:20:12.342Z,998.4
2018-11-07T06:21:21.889Z,998.44
2018-11-07T06:22:31.737Z,998.45
2018-11-07T06:23:41.831Z,998.38
2018-11-07T06:24:51.958Z,998.36
2018-11-07T06:26:02.744Z,998.38
2018-11-07T06:27:12.299Z,998.43
2018-11-07T06:28:22.388Z,998.43
2018-11-07T06:29:32.500Z,998.4
2018-11-07T06:30:42.039Z,998.46
2018-11-07T06:31:52.167Z,998.48
2018-11-07T06:33:02.248Z,998.45
2018-11-07T06:34:12.091Z,998.46
2018-11-07T06:35:22.292Z,998.51
2018-11-07T06:36:32.372Z,998.44
2018-11-07T06:37:42.198Z,998.43
2018-11-07T06:38:51.741Z,998.43
2018-11-07T06:40:03.364Z,998.47
2018-11-07T06:41:13.729Z,998.47
2018-11-07T06:42:23.531Z,998.45
2018-11-07T06:43:33.578Z,998.41
2018-11-07T06:44:43.140Z,998.45
2018-11-07T06:45:53.263Z,998.41
2018-11-07T06:47:05.313Z,998.43
2018-11-07T06:48:15.142Z,998.43
2018-11-07T06:49:25.047Z,998.45
2018-11-07T06:50:34.874Z,998.45
2018-11-07T06:51:44.925Z,998.45
2018-11-07T06:52:54.783Z,998.46
2018-11-07T06:54:04.884Z,998.43
2018-11-07T06:55:14.470Z,998.43
2018-11-07T06:56:24.627Z,998.45
2018-11-07T06:57:34.932Z,998.47
2018-11-07T06:58:44.845Z,998.52
2018-11-07T06:59:54.660Z,998.47
2018-11-07T07:01:06.480Z,998.52
2018-11-07T07:02:16.173Z,998.53
2018-11-07T07:03:26.002Z,998.55
2018-11-07T07:04:36.148Z,998.62
2018-11-07T07:05:45.975Z,998.62
2018-11-07T07:06:56.049Z,998.61
2018-11-07T07:08:08.400Z,998.63
2018-11-07T07:09:17.966Z,998.66
2018-11-07T07:10:28.062Z,998.6
2018-11-07T07:11:37.815Z,998.56
2018-11-07T07:12:47.899Z,998.6
2018-11-07T07:13:57.736Z,998.59
2018-11-07T07:15:07.564Z,998.62
2018-11-07T07:16:17.412Z,998.62
2018-11-07T07:17:27.597Z,998.63
2018-11-07T07:18:37.370Z,998.61
2018-11-07T07:19:47.514Z,998.64
2018-11-07T07:20:57.634Z,998.63
2018-11-07T07:22:08.164Z,998.66
2018-11-07T07:23:18.016Z,998.68
2018-11-07T07:24:27.889Z,998.69
2018-11-07T07:25:37.728Z,998.69
2018-11-07T07:26:48.425Z,998.66
2018-11-07T07:27:58.509Z,998.71
2018-11-07T07:29:08.352Z,998.7
2018-11-07T07:30:18.189Z,998.66
2018-11-07T07:31:28.421Z,998.76
2018-11-07T07:32:38.237Z,998.71
2018-11-07T07:33:48.348Z,998.76
2018-11-07T07:34:58.247Z,998.79
2018-11-07T07:36:08.047Z,998.75
2018-11-07T07:37:17.869Z,998.75
2018-11-07T07:38:27.965Z,998.79
2018-11-07T07:39:38.152Z,998.79
2018-11-07T07:40:48.241Z,998.79
2018-11-07T07:41:58.450Z,998.8
2018-11-07T07:43:08.353Z,998.79
2018-11-07T07:44:18.456Z,998.8
2018-11-07T07:45:28.574Z,998.83
2018-11-07T07:46:37.971Z,998.83
2018-11-07T07:47:47.849Z,998.87
2018-11-07T07:48:57.693Z,998.87
2018-11-07T07:50:07.842Z,998.87
2018-11-07T07:51:17.922Z,998.82
2018-11-07T07:52:27.738Z,998.79
2018-11-07T07:53:37.645Z,998.8
2018-11-07T07:54:47.246Z,998.75
2018-11-07T07:55:57.576Z,998.73
2018-11-07T07:57:07.690Z,998.74
2018-11-07T07:58:17.519Z,998.77
2018-11-07T07:59:27.899Z,998.77
2018-11-07T08:00:37.493Z,998.76
2018-11-07T08:01:47.310Z,998.77
2018-11-07T08:02:57.446Z,998.76
2018-11-07T08:04:07.617Z,998.79
2018-11-07T08:05:17.441Z,998.75
2018-11-07T08:06:27.521Z,998.81
2018-11-07T08:07:37.360Z,998.77
2018-11-07T08:08:46.910Z,998.86
2018-11-07T08:09:56.400Z,998.81
2018-11-07T08:11:07.794Z,998.85
2018-11-07T08:12:17.865Z,998.83
2018-11-07T08:13:27.996Z,998.85
2018-11-07T08:14:38.581Z,998.86
2018-11-07T08:15:48.121Z,998.81
2018-11-07T08:16:57.958Z,998.88
2018-11-07T08:18:07.502Z,998.85
2018-11-07T08:19:17.326Z,998.85
2018-11-07T08:20:27.161Z,998.87
2018-11-07T08:21:37.259Z,998.9
2018-11-07T08:22:47.078Z,998.86
2018-11-07T08:23:56.957Z,998.9
2018-11-07T08:25:07.055Z,998.93
2018-11-07T08:26:16.349Z,998.88
2018-11-07T08:27:26.416Z,998.92
2018-11-07T08:28:36.541Z,998.89
2018-11-07T08:29:46.103Z,998.93
2018-11-07T08:30:56.538Z,998.89
2018-11-07T08:32:06.729Z,998.88
2018-11-07T08:33:16.276Z,998.91
2018-11-07T08:34:26.460Z,998.9
2018-11-07T08:35:36.543Z,998.94
2018-11-07T08:36:46.414Z,998.93
2018-11-07T08:37:56.544Z,998.97
2018-11-07T08:39:06.176Z,998.93
2018-11-07T08:40:15.990Z,998.99
2018-11-07T08:41:25.851Z,998.97
2018-11-07T08:42:36.001Z,998.97
2018-11-07T08:43:46.093Z,998.99
2018-11-07T08:44:55.965Z,999.03
2018-11-07T08:46:08.314Z,998.98
2018-11-07T08:47:19.037Z,999.01
2018-11-07T08:48:29.183Z,999
2018-11-07T08:49:39.012Z,999
2018-11-07T08:50:49.130Z,998.97
2018-11-07T08:51:59.226Z,998.94
2018-11-07T08:53:08.804Z,998.94
2018-11-07T08:54:19.015Z,998.9
2018-11-07T08:55:29.134Z,998.96
2018-11-07T08:56:39.202Z,999.02
2018-11-07T08:57:49.299Z,998.97
2018-11-07T08:58:59.115Z,998.98
2018-11-07T09:00:10.797Z,999.03
2018-11-07T09:01:20.910Z,998.98
2018-11-07T09:02:31.224Z,999.03
2018-11-07T09:03:41.548Z,999.01
2018-11-07T09:04:51.336Z,998.97
2018-11-07T09:06:02.630Z,999.01
2018-11-07T09:07:12.710Z,998.96
2018-11-07T09:08:22.266Z,998.97
2018-11-07T09:09:32.097Z,999.01
2018-11-07T09:10:41.914Z,998.95
2018-11-07T09:11:51.502Z,998.94
2018-11-07T09:13:01.494Z,998.94
2018-11-07T09:14:11.421Z,998.93
2018-11-07T09:15:21.247Z,998.88
2018-11-07T09:16:31.318Z,998.85
2018-11-07T09:17:42.512Z,998.85
2018-11-07T09:18:52.333Z,998.81
2018-11-07T09:20:02.520Z,998.79
2018-11-07T09:21:12.144Z,998.76
2018-11-07T09:22:22.258Z,998.75
2018-11-07T09:23:32.610Z,998.75
2018-11-07T09:24:42.679Z,998.75
2018-11-07T09:25:52.751Z,998.74
2018-11-07T09:27:02.511Z,998.72
2018-11-07T09:28:12.069Z,998.73
2018-11-07T09:29:21.698Z,998.76
2018-11-07T09:30:31.326Z,998.81
2018-11-07T09:31:41.177Z,998.81
2018-11-07T09:32:51.029Z,998.78
2018-11-07T09:34:01.486Z,998.76
2018-11-07T09:35:11.350Z,998.76
2018-11-07T09:36:21.171Z,998.79
2018-11-07T09:37:31.251Z,998.83
2018-11-07T09:38:41.337Z,998.8
2018-11-07T09:39:51.246Z,998.82
2018-11-07T09:41:01.214Z,998.79
2018-11-07T09:42:11.041Z,998.78
2018-11-07T09:43:20.606Z,998.79
2018-11-07T09:44:30.738Z,998.79
2018-11-07T09:45:41.089Z,998.83
2018-11-07T09:46:50.890Z,998.82
2018-11-07T09:48:03.550Z,998.75
2018-11-07T09:49:14.247Z,998.78
2018-11-07T09:50:24.344Z,998.72
2018-11-07T09:51:33.906Z,998.71
2018-11-07T09:52:44.241Z,998.65
2018-11-07T09:53:54.647Z,998.71
2018-11-07T09:55:04.908Z,998.64
2018-11-07T09:56:14.731Z,998.58
2018-11-07T09:57:24.905Z,998.56
2018-11-07T09:58:35.245Z,998.54
2018-11-07T09:59:45.338Z,998.51
2018-11-07T10:00:55.222Z,998.48
2018-11-07T10:02:06.385Z,998.38
2018-11-07T10:03:16.483Z,998.38
2018-11-07T10:04:26.018Z,998.38
2018-11-07T10:05:35.899Z,998.41
2018-11-07T10:06:46.438Z,998.38
2018-11-07T10:07:56.561Z,998.43
2018-11-07T10:09:08.216Z,998.45
2018-11-07T10:10:18.049Z,998.43
2018-11-07T10:11:28.414Z,998.45
2018-11-07T10:12:39.159Z,998.4
2018-11-07T10:13:49.339Z,998.39
2018-11-07T10:14:59.148Z,998.38
2018-11-07T10:16:09.534Z,998.36
2018-11-07T10:17:19.634Z,998.26
2018-11-07T10:18:29.695Z,998.32
2018-11-07T10:19:39.555Z,998.29
2018-11-07T10:20:49.384Z,998.3
2018-11-07T10:21:59.247Z,998.31
2018-11-07T10:23:09.772Z,998.39
2018-11-07T10:24:19.879Z,998.4
2018-11-07T10:25:29.997Z,998.34
2018-11-07T10:26:40.267Z,998.33
2018-11-07T10:27:50.984Z,998.41
2018-11-07T10:29:07.848Z,998.33
2018-11-07T10:30:19.616Z,998.34
2018-11-07T10:31:30.890Z,998.4
2018-11-07T10:32:40.964Z,998.3
2018-11-07T10:33:50.955Z,998.35
2018-11-07T10:35:02.501Z,998.34
2018-11-07T10:36:12.342Z,998.29
2018-11-07T10:37:32.141Z,998.27
2018-11-07T10:38:40.662Z,998.24
2018-11-07T10:39:51.423Z,998.25
2018-11-07T10:41:02.279Z,998.21
2018-11-07T10:42:12.385Z,998.34
2018-11-07T10:43:22.264Z,998.29
2018-11-07T10:44:32.529Z,998.29
2018-11-07T10:45:41.856Z,998.26
2018-11-07T10:46:51.738Z,998.35
2018-11-07T10:48:04.100Z,998.28
2018-11-07T10:49:14.184Z,998.2
2018-11-07T10:50:24.066Z,998.24
2018-11-07T10:51:33.620Z,998.23
2018-11-07T10:52:43.819Z,998.19
2018-11-07T10:53:53.904Z,998.25
2018-11-07T10:55:03.841Z,998.18
2018-11-07T10:56:13.981Z,998.17
2018-11-07T10:57:23.804Z,998.14
2018-11-07T10:58:33.885Z,998.19
2018-11-07T10:59:43.173Z,998.17
2018-11-07T11:00:52.997Z,998.19
2018-11-07T11:02:04.256Z,998.18
2018-11-07T11:03:14.168Z,998.17
2018-11-07T11:04:23.765Z,998.17
2018-11-07T11:05:33.350Z,998.19
2018-11-07T11:06:43.178Z,998.08
2018-11-07T11:07:53.004Z,998.15
2018-11-07T11:09:02.831Z,998.13
2018-11-07T11:10:12.912Z,998.06
2018-11-07T11:11:22.884Z,997.98
2018-11-07T11:12:33.152Z,998.06
2018-11-07T11:13:43.538Z,998.02
2018-11-07T11:14:53.638Z,998.05
2018-11-07T11:16:05.104Z,997.94
2018-11-07T11:17:14.495Z,997.93
2018-11-07T11:18:25.266Z,997.99
2018-11-07T11:19:35.817Z,997.91
2018-11-07T11:20:45.999Z,997.98
2018-11-07T11:21:55.867Z,997.95
2018-11-07T11:23:06.044Z,997.94
2018-11-07T11:24:16.230Z,997.97
2018-11-07T11:25:26.378Z,998
2018-11-07T11:26:36.477Z,997.87
2018-11-07T11:27:46.620Z,997.88
2018-11-07T11:28:56.769Z,997.87
2018-11-07T11:30:06.923Z,997.85
2018-11-07T11:31:16.732Z,997.83
2018-11-07T11:32:27.172Z,997.84
2018-11-07T11:33:37.437Z,997.77
2018-11-07T11:34:48.191Z,997.82
2018-11-07T11:35:58.223Z,997.69
2018-11-07T11:37:08.696Z,997.61
2018-11-07T11:38:18.692Z,997.62
2018-11-07T11:39:28.511Z,997.64
2018-11-07T11:40:38.538Z,997.59
2018-11-07T11:41:48.904Z,997.58
2018-11-07T11:42:59.088Z,997.53
2018-11-07T11:44:09.468Z,997.55
2018-11-07T11:45:19.644Z,997.56
2018-11-07T11:46:29.749Z,997.58
2018-11-07T11:47:39.755Z,997.54
2018-11-07T11:48:50.182Z,997.58
2018-11-07T11:49:59.963Z,997.53
2018-11-07T11:51:11.620Z,997.55
2018-11-07T11:52:21.977Z,997.45
2018-11-07T11:53:32.121Z,997.52
2018-11-07T11:54:41.998Z,997.52
2018-11-07T11:55:52.317Z,997.45
2018-11-07T11:57:02.420Z,997.46
2018-11-07T11:58:12.487Z,997.47
2018-11-07T11:59:22.725Z,997.53
2018-11-07T12:00:34.704Z,997.5
2018-11-07T12:01:44.860Z,997.5
2018-11-07T12:02:54.431Z,997.46
2018-11-07T12:04:04.528Z,997.43
2018-11-07T12:05:14.893Z,997.46
2018-11-07T12:06:24.754Z,997.41
2018-11-07T12:07:35.248Z,997.45
2018-11-07T12:08:45.406Z,997.52
2018-11-07T12:09:56.391Z,997.38
2018-11-07T12:11:08.867Z,997.41
2018-11-07T12:12:18.696Z,997.38
2018-11-07T12:13:28.382Z,997.36
2018-11-07T12:14:38.877Z,997.3
2018-11-07T12:15:48.997Z,997.31
2018-11-07T12:16:58.297Z,997.28
2018-11-07T12:18:08.331Z,997.29
2018-11-07T12:19:18.162Z,997.29
2018-11-07T12:20:28.257Z,997.29
2018-11-07T12:21:38.330Z,997.34
2018-11-07T12:22:48.162Z,997.29
2018-11-07T12:23:57.731Z,997.31
2018-11-07T12:25:07.549Z,997.34
2018-11-07T12:26:17.373Z,997.38
2018-11-07T12:27:27.487Z,997.36
2018-11-07T12:28:37.362Z,997.41
2018-11-07T12:29:47.465Z,997.34
2018-11-07T12:30:57.567Z,997.45
2018-11-07T12:32:07.136Z,997.36
2018-11-07T12:33:17.223Z,997.3
2018-11-07T12:34:27.109Z,997.3
2018-11-07T12:35:36.966Z,997.34
2018-11-07T12:36:47.067Z,997.29
2018-11-07T12:37:56.892Z,997.31
2018-11-07T12:39:06.664Z,997.29
2018-11-07T12:40:16.757Z,997.27
2018-11-07T12:41:26.858Z,997.29
2018-11-07T12:42:36.993Z,997.25
2018-11-07T12:43:47.186Z,997.23
2018-11-07T12:44:57.293Z,997.25
2018-11-07T12:46:07.441Z,997.35
2018-11-07T12:47:17.576Z,997.23
2018-11-07T12:48:27.662Z,997.32
2018-11-07T12:49:37.801Z,997.29
2018-11-07T12:50:48.591Z,997.33
2018-11-07T12:51:58.731Z,997.28
2018-11-07T12:53:08.837Z,997.35
2018-11-07T12:54:18.726Z,997.34
2018-11-07T12:55:28.547Z,997.29
2018-11-07T12:56:38.620Z,997.34
2018-11-07T12:57:48.879Z,997.37
2018-11-07T12:58:59.962Z,997.37
2018-11-07T13:00:10.056Z,997.31
2018-11-07T13:01:20.012Z,997.33
2018-11-07T13:02:29.839Z,997.36
2018-11-07T13:03:39.986Z,997.38
2018-11-07T13:04:50.153Z,997.26
2018-11-07T13:05:59.991Z,997.25
2018-11-07T13:07:10.177Z,997.24
2018-11-07T13:08:19.995Z,997.26
2018-11-07T13:09:29.824Z,997.29
2018-11-07T13:10:39.666Z,997.27
2018-11-07T13:11:49.245Z,997.29
2018-11-07T13:12:59.092Z,997.25
2018-11-07T13:14:09.213Z,997.27
2018-11-07T13:15:19.356Z,997.29
2018-11-07T13:16:29.249Z,997.29
2018-11-07T13:17:39.882Z,997.28
2018-11-07T13:18:49.174Z,997.25
2018-11-07T13:19:59.373Z,997.26
2018-11-07T13:21:08.943Z,997.37
2018-11-07T13:22:19.111Z,997.33
2018-11-07T13:23:29.798Z,997.32
2018-11-07T13:24:39.620Z,997.35
2018-11-07T13:25:49.541Z,997.37
2018-11-07T13:26:59.666Z,997.4
2018-11-07T13:28:09.994Z,997.4
2018-11-07T13:29:20.948Z,997.43
2018-11-07T13:30:30.779Z,997.43
2018-11-07T13:31:40.901Z,997.4
2018-11-07T13:32:50.718Z,997.43
2018-11-07T13:34:00.574Z,997.43
2018-11-07T13:35:10.743Z,997.45
2018-11-07T13:36:20.850Z,997.48
2018-11-07T13:37:31.868Z,997.46
2018-11-07T13:38:44.244Z,997.46
2018-11-07T13:39:56.345Z,997.45
2018-11-07T13:41:06.546Z,997.42
2018-11-07T13:42:16.879Z,997.38
2018-11-07T13:43:26.688Z,997.43
2018-11-07T13:44:36.796Z,997.37
2018-11-07T13:45:46.635Z,997.38
2018-11-07T13:46:57.144Z,997.36
2018-11-07T13:48:07.243Z,997.35
2018-11-07T13:49:17.141Z,997.37
2018-11-07T13:50:26.707Z,997.35
2018-11-07T13:51:36.556Z,997.34
2018-11-07T13:52:46.690Z,997.29
2018-11-07T13:53:56.963Z,997.27
2018-11-07T13:55:07.302Z,997.31
2018-11-07T13:56:17.395Z,997.28
2018-11-07T13:57:26.956Z,997.28
2018-11-07T13:58:36.274Z,997.31
2018-11-07T13:59:46.374Z,997.31
2018-11-07T14:00:56.243Z,997.31
2018-11-07T14:02:05.810Z,997.3
2018-11-07T14:03:15.640Z,997.34
2018-11-07T14:04:24.989Z,997.3
2018-11-07T14:05:34.970Z,997.34
2018-11-07T14:06:46.329Z,997.35
2018-11-07T14:07:56.159Z,997.37
2018-11-07T14:09:08.468Z,997.35
2018-11-07T14:10:18.282Z,997.38
2018-11-07T14:11:27.861Z,997.41
2018-11-07T14:12:38.094Z,997.37
2018-11-07T14:13:47.360Z,997.35
2018-11-07T14:14:57.132Z,997.34
2018-11-07T14:16:07.470Z,997.28
2018-11-07T14:17:17.818Z,997.29
2018-11-07T14:18:27.634Z,997.29
2018-11-07T14:19:37.433Z,997.23
2018-11-07T14:20:47.521Z,997.25
2018-11-07T14:21:57.338Z,997.21
2018-11-07T14:23:07.458Z,997.22
2018-11-07T14:24:17.320Z,997.19
2018-11-07T14:25:27.412Z,997.22
2018-11-07T14:26:37.270Z,997.19
2018-11-07T14:27:47.806Z,997.15
2018-11-07T14:28:59.298Z,997.16
2018-11-07T14:30:09.467Z,997.12
2018-11-07T14:31:19.653Z,997.18
2018-11-07T14:32:29.776Z,997.16
2018-11-07T14:33:39.618Z,997.12
2018-11-07T14:34:49.181Z,997.12
2018-11-07T14:35:59.329Z,997.12
2018-11-07T14:37:08.915Z,997.02
2018-11-07T14:38:19.018Z,996.99
2018-11-07T14:39:28.720Z,996.96
2018-11-07T14:40:38.538Z,997.01
2018-11-07T14:41:48.681Z,996.9
2018-11-07T14:42:58.767Z,996.92
2018-11-07T14:44:08.873Z,996.89
2018-11-07T14:45:18.713Z,996.92
2018-11-07T14:46:28.567Z,996.91
2018-11-07T14:47:39.099Z,996.95
2018-11-07T14:48:49.052Z,996.96
2018-11-07T14:49:59.157Z,997.05
2018-11-07T14:51:10.749Z,997.07
2018-11-07T14:52:20.584Z,997.01
2018-11-07T14:53:30.834Z,997.07
2018-11-07T14:54:41.390Z,997.08
2018-11-07T14:55:51.500Z,997.13
2018-11-07T14:57:01.860Z,997.13
2018-11-07T14:58:11.967Z,997.13
2018-11-07T14:59:21.620Z,997.13
2018-11-07T15:00:31.682Z,997.18
2018-11-07T15:01:41.546Z,997.14
2018-11-07T15:02:51.205Z,997.19
2018-11-07T15:04:01.420Z,997.14
2018-11-07T15:05:11.027Z,997.17
2018-11-07T15:06:21.344Z,997.18
2018-11-07T15:07:31.162Z,997.18
2018-11-07T15:08:41.282Z,997.25
2018-11-07T15:09:51.431Z,997.18